sensor_id;sensor_type;location;lat;lon;timestamp;pressure;altitude;pressure_sealevel;temperature;humidity
50310;BME280;36207;51.850;21.698;2022-12-17T00:01:55;99810.85;;;-2.40;78.21
50310;BME280;36207;51.850;21.698;2022-12-17T00:04:40;99805.34;;;-2.44;78.11
50310;BME280;36207;51.850;21.698;2022-12-17T00:07:25;99808.46;;;-2.43;78.31
50310;BME280;36207;51.850;21.698;2022-12-17T00:10:10;99819.81;;;-2.41;78.31
50310;BME280;36207;51.850;21.698;2022-12-17T00:12:55;99830.94;;;-2.38;78.37
50310;BME280;36207;51.850;21.698;2022-12-17T00:15:40;99838.04;;;-2.37;78.30
50310;BME280;36207;51.850;21.698;2022-12-17T00:18:25;99843.23;;;-2.39;78.08
50310;BME280;36207;51.850;21.698;2022-12-17T00:21:10;99846.45;;;-2.43;78.11
50310;BME280;36207;51.850;21.698;2022-12-17T00:23:55;99846.95;;;-2.45;78.08
50310;BME280;36207;51.850;21.698;2022-12-17T00:26:40;99852.95;;;-2.47;78.28
50310;BME280;36207;51.850;21.698;2022-12-17T00:29:25;99848.90;;;-2.46;78.25
50310;BME280;36207;51.850;21.698;2022-12-17T00:32:10;99847.67;;;-2.46;78.28
50310;BME280;36207;51.850;21.698;2022-12-17T00:34:55;99854.10;;;-2.43;78.20
50310;BME280;36207;51.850;21.698;2022-12-17T00:37:40;99859.13;;;-2.40;78.28
50310;BME280;36207;51.850;21.698;2022-12-17T00:40:25;99858.94;;;-2.39;78.34
50310;BME280;36207;51.850;21.698;2022-12-17T00:43:11;99855.06;;;-2.41;78.27
50310;BME280;36207;51.850;21.698;2022-12-17T00:45:57;99858.80;;;-2.43;78.29
50310;BME280;36207;51.850;21.698;2022-12-17T00:48:42;99857.94;;;-2.43;78.29
50310;BME280;36207;51.850;21.698;2022-12-17T00:51:28;99852.35;;;-2.45;78.22
50310;BME280;36207;51.850;21.698;2022-12-17T00:54:13;99862.38;;;-2.47;78.24
50310;BME280;36207;51.850;21.698;2022-12-17T00:56:58;99874.16;;;-2.45;78.31
50310;BME280;36207;51.850;21.698;2022-12-17T00:59:42;99881.62;;;-2.42;78.32
50310;BME280;36207;51.850;21.698;2022-12-17T01:02:27;99875.55;;;-2.40;78.14
50310;BME280;36207;51.850;21.698;2022-12-17T01:05:13;99875.77;;;-2.41;78.28
50310;BME280;36207;51.850;21.698;2022-12-17T01:08:09;99876.42;;;-2.40;78.19
50310;BME280;36207;51.850;21.698;2022-12-17T01:11:02;99882.27;;;-2.44;78.17
50310;BME280;36207;51.850;21.698;2022-12-17T01:13:47;99888.66;;;-2.46;78.28
50310;BME280;36207;51.850;21.698;2022-12-17T01:16:33;99898.88;;;-2.48;78.16
50310;BME280;36207;51.850;21.698;2022-12-17T01:19:18;99902.45;;;-2.49;78.27
50310;BME280;36207;51.850;21.698;2022-12-17T01:22:03;99901.84;;;-2.48;78.21
50310;BME280;36207;51.850;21.698;2022-12-17T01:24:48;99910.63;;;-2.46;78.31
50310;BME280;36207;51.850;21.698;2022-12-17T01:27:33;99910.80;;;-2.43;78.20
50310;BME280;36207;51.850;21.698;2022-12-17T01:30:18;99912.85;;;-2.43;78.32
50310;BME280;36207;51.850;21.698;2022-12-17T01:33:05;99910.33;;;-2.44;78.15
50310;BME280;36207;51.850;21.698;2022-12-17T01:35:57;99911.95;;;-2.48;78.13
50310;BME280;36207;51.850;21.698;2022-12-17T01:38:43;99914.36;;;-2.50;78.25
50310;BME280;36207;51.850;21.698;2022-12-17T01:41:28;99911.58;;;-2.50;78.27
50310;BME280;36207;51.850;21.698;2022-12-17T01:44:49;99904.52;;;-2.49;78.15
50310;BME280;36207;51.850;21.698;2022-12-17T01:47:52;99894.64;;;-2.47;78.20
50310;BME280;36207;51.850;21.698;2022-12-17T01:50:45;99884.67;;;-2.43;78.36
50310;BME280;36207;51.850;21.698;2022-12-17T01:53:40;99891.50;;;-2.41;78.21
50310;BME280;36207;51.850;21.698;2022-12-17T01:56:27;99894.89;;;-2.43;78.09
50310;BME280;36207;51.850;21.698;2022-12-17T01:59:13;99899.31;;;-2.44;78.22
50310;BME280;36207;51.850;21.698;2022-12-17T02:01:58;99906.04;;;-2.42;78.29
50310;BME280;36207;51.850;21.698;2022-12-17T02:05:03;99914.58;;;-2.45;78.19
50310;BME280;36207;51.850;21.698;2022-12-17T02:11:02;99929.35;;;-2.47;78.31
50310;BME280;36207;51.850;21.698;2022-12-17T02:14:04;99929.59;;;-2.45;78.28
50310;BME280;36207;51.850;21.698;2022-12-17T02:16:58;99924.19;;;-2.45;78.28
50310;BME280;36207;51.850;21.698;2022-12-17T02:19:54;99921.94;;;-2.46;78.16
50310;BME280;36207;51.850;21.698;2022-12-17T02:23:01;99917.02;;;-2.48;78.25
50310;BME280;36207;51.850;21.698;2022-12-17T02:26:03;99914.61;;;-2.51;78.23
50310;BME280;36207;51.850;21.698;2022-12-17T02:28:51;99915.66;;;-2.51;78.22
50310;BME280;36207;51.850;21.698;2022-12-17T02:31:39;99916.63;;;-2.50;78.25
50310;BME280;36207;51.850;21.698;2022-12-17T02:34:25;99911.75;;;-2.50;78.29
50310;BME280;36207;51.850;21.698;2022-12-17T02:37:10;99923.84;;;-2.48;78.17
50310;BME280;36207;51.850;21.698;2022-12-17T02:39:55;99928.75;;;-2.46;78.27
50310;BME280;36207;51.850;21.698;2022-12-17T02:42:41;99918.36;;;-2.44;78.31
50310;BME280;36207;51.850;21.698;2022-12-17T02:45:27;99917.85;;;-2.47;78.08
50310;BME280;36207;51.850;21.698;2022-12-17T02:48:12;99929.99;;;-2.52;77.99
50310;BME280;36207;51.850;21.698;2022-12-17T02:50:57;99926.92;;;-2.56;78.03
50310;BME280;36207;51.850;21.698;2022-12-17T02:53:44;99921.56;;;-2.56;78.17
50310;BME280;36207;51.850;21.698;2022-12-17T02:56:29;99919.11;;;-2.56;78.17
50310;BME280;36207;51.850;21.698;2022-12-17T02:59:14;99913.20;;;-2.54;78.26
50310;BME280;36207;51.850;21.698;2022-12-17T03:01:59;99899.97;;;-2.51;78.16
50310;BME280;36207;51.850;21.698;2022-12-17T03:04:44;99898.86;;;-2.50;78.21
50310;BME280;36207;51.850;21.698;2022-12-17T03:07:29;99902.06;;;-2.54;77.97
50310;BME280;36207;51.850;21.698;2022-12-17T03:10:14;99906.98;;;-2.57;78.04
50310;BME280;36207;51.850;21.698;2022-12-17T03:12:58;99904.56;;;-2.60;78.02
50310;BME280;36207;51.850;21.698;2022-12-17T03:15:43;99909.23;;;-2.62;78.09
50310;BME280;36207;51.850;21.698;2022-12-17T03:18:28;99905.10;;;-2.63;78.03
50310;BME280;36207;51.850;21.698;2022-12-17T03:21:14;99903.27;;;-2.62;78.12
50310;BME280;36207;51.850;21.698;2022-12-17T03:23:58;99904.77;;;-2.61;78.15
50310;BME280;36207;51.850;21.698;2022-12-17T03:26:44;99908.15;;;-2.59;78.19
50310;BME280;36207;51.850;21.698;2022-12-17T03:29:29;99906.42;;;-2.59;78.12
50310;BME280;36207;51.850;21.698;2022-12-17T03:32:13;99908.11;;;-2.64;77.97
50310;BME280;36207;51.850;21.698;2022-12-17T03:34:58;99906.79;;;-2.68;77.90
50310;BME280;36207;51.850;21.698;2022-12-17T03:37:43;99903.88;;;-2.72;78.04
50310;BME280;36207;51.850;21.698;2022-12-17T03:40:28;99898.77;;;-2.71;78.20
50310;BME280;36207;51.850;21.698;2022-12-17T03:43:13;99897.36;;;-2.71;78.11
50310;BME280;36207;51.850;21.698;2022-12-17T03:45:58;99897.00;;;-2.70;78.05
50310;BME280;36207;51.850;21.698;2022-12-17T03:48:42;99901.32;;;-2.70;78.21
50310;BME280;36207;51.850;21.698;2022-12-17T03:51:28;99899.52;;;-2.69;78.15
50310;BME280;36207;51.850;21.698;2022-12-17T03:54:12;99894.73;;;-2.70;78.16
50310;BME280;36207;51.850;21.698;2022-12-17T03:56:58;99884.34;;;-2.71;78.12
50310;BME280;36207;51.850;21.698;2022-12-17T03:59:42;99888.00;;;-2.71;78.19
50310;BME280;36207;51.850;21.698;2022-12-17T04:02:27;99894.91;;;-2.71;78.25
50310;BME280;36207;51.850;21.698;2022-12-17T04:05:12;99898.23;;;-2.67;78.33
50310;BME280;36207;51.850;21.698;2022-12-17T04:07:57;99905.08;;;-2.65;78.31
50310;BME280;36207;51.850;21.698;2022-12-17T04:10:42;99920.15;;;-2.61;78.42
50310;BME280;36207;51.850;21.698;2022-12-17T04:13:27;99929.03;;;-2.61;78.11
50310;BME280;36207;51.850;21.698;2022-12-17T04:16:12;99929.95;;;-2.65;78.17
50310;BME280;36207;51.850;21.698;2022-12-17T04:18:57;99932.71;;;-2.67;78.21
50310;BME280;36207;51.850;21.698;2022-12-17T04:21:42;99940.98;;;-2.68;78.17
50310;BME280;36207;51.850;21.698;2022-12-17T04:24:27;99962.02;;;-2.67;78.18
50310;BME280;36207;51.850;21.698;2022-12-17T04:27:12;99997.83;;;-2.63;78.38
50310;BME280;36207;51.850;21.698;2022-12-17T04:29:57;100035.70;;;-2.61;78.23
50310;BME280;36207;51.850;21.698;2022-12-17T04:32:42;100060.50;;;-2.62;78.13
50310;BME280;36207;51.850;21.698;2022-12-17T04:35:27;100054.82;;;-2.63;78.25
50310;BME280;36207;51.850;21.698;2022-12-17T04:38:12;100042.02;;;-2.62;78.34
50310;BME280;36207;51.850;21.698;2022-12-17T04:40:57;100039.70;;;-2.64;78.19
50310;BME280;36207;51.850;21.698;2022-12-17T04:43:42;100039.06;;;-2.65;78.25
50310;BME280;36207;51.850;21.698;2022-12-17T04:46:27;100026.84;;;-2.65;78.23
50310;BME280;36207;51.850;21.698;2022-12-17T04:49:12;100015.70;;;-2.62;78.18
50310;BME280;36207;51.850;21.698;2022-12-17T04:51:57;100016.70;;;-2.58;78.33
50310;BME280;36207;51.850;21.698;2022-12-17T04:54:42;100017.00;;;-2.58;78.15
50310;BME280;36207;51.850;21.698;2022-12-17T04:57:26;100015.33;;;-2.59;78.12
50310;BME280;36207;51.850;21.698;2022-12-17T05:00:12;100020.50;;;-2.60;78.21
50310;BME280;36207;51.850;21.698;2022-12-17T05:03:06;100020.14;;;-2.63;78.05
50310;BME280;36207;51.850;21.698;2022-12-17T05:05:52;100009.36;;;-2.66;78.12
50310;BME280;36207;51.850;21.698;2022-12-17T05:08:38;100010.02;;;-2.69;78.13
50310;BME280;36207;51.850;21.698;2022-12-17T05:11:23;100018.19;;;-2.72;78.16
50310;BME280;36207;51.850;21.698;2022-12-17T05:14:08;100017.41;;;-2.70;78.20
50310;BME280;36207;51.850;21.698;2022-12-17T05:16:53;100005.15;;;-2.69;78.18
50310;BME280;36207;51.850;21.698;2022-12-17T05:19:38;100003.09;;;-2.67;78.11
50310;BME280;36207;51.850;21.698;2022-12-17T05:22:23;99998.70;;;-2.66;78.14
50310;BME280;36207;51.850;21.698;2022-12-17T05:25:09;100002.92;;;-2.70;78.11
50310;BME280;36207;51.850;21.698;2022-12-17T05:27:53;100006.16;;;-2.72;78.21
50310;BME280;36207;51.850;21.698;2022-12-17T05:30:38;100007.55;;;-2.74;78.12
50310;BME280;36207;51.850;21.698;2022-12-17T05:33:24;100009.98;;;-2.77;78.11
50310;BME280;36207;51.850;21.698;2022-12-17T05:36:12;100011.21;;;-2.80;78.12
50310;BME280;36207;51.850;21.698;2022-12-17T05:38:57;100016.82;;;-2.80;78.29
50310;BME280;36207;51.850;21.698;2022-12-17T05:41:42;100020.80;;;-2.80;78.27
50310;BME280;36207;51.850;21.698;2022-12-17T05:44:27;100034.63;;;-2.81;78.26
50310;BME280;36207;51.850;21.698;2022-12-17T05:47:12;100048.52;;;-2.80;78.33
50310;BME280;36207;51.850;21.698;2022-12-17T05:49:57;100054.84;;;-2.81;78.23
50310;BME280;36207;51.850;21.698;2022-12-17T05:52:42;100049.25;;;-2.84;78.27
50310;BME280;36207;51.850;21.698;2022-12-17T05:55:27;100046.31;;;-2.86;78.17
50310;BME280;36207;51.850;21.698;2022-12-17T05:58:12;100045.02;;;-2.85;78.42
50310;BME280;36207;51.850;21.698;2022-12-17T06:00:58;100042.30;;;-2.81;78.48
50310;BME280;36207;51.850;21.698;2022-12-17T06:03:43;100042.17;;;-2.76;78.51
50310;BME280;36207;51.850;21.698;2022-12-17T06:06:28;100052.46;;;-2.73;78.42
50310;BME280;36207;51.850;21.698;2022-12-17T06:09:13;100057.89;;;-2.76;78.33
50310;BME280;36207;51.850;21.698;2022-12-17T06:11:59;100060.08;;;-2.81;78.33
50310;BME280;36207;51.850;21.698;2022-12-17T06:14:44;100067.19;;;-2.83;78.42
50310;BME280;36207;51.850;21.698;2022-12-17T06:17:29;100071.35;;;-2.83;78.47
50310;BME280;36207;51.850;21.698;2022-12-17T06:20:15;100069.09;;;-2.80;78.47
50310;BME280;36207;51.850;21.698;2022-12-17T06:23:06;100065.42;;;-2.80;78.40
50310;BME280;36207;51.850;21.698;2022-12-17T06:25:54;100070.39;;;-2.79;78.43
50310;BME280;36207;51.850;21.698;2022-12-17T06:28:40;100083.03;;;-2.77;78.60
50310;BME280;36207;51.850;21.698;2022-12-17T06:31:26;100082.59;;;-2.79;78.53
50310;BME280;36207;51.850;21.698;2022-12-17T06:34:11;100089.92;;;-2.82;78.49
50310;BME280;36207;51.850;21.698;2022-12-17T06:36:55;100092.88;;;-2.84;78.42
50310;BME280;36207;51.850;21.698;2022-12-17T06:39:41;100094.27;;;-2.84;78.45
50310;BME280;36207;51.850;21.698;2022-12-17T06:42:26;100093.91;;;-2.82;78.52
50310;BME280;36207;51.850;21.698;2022-12-17T06:45:11;100094.22;;;-2.78;78.57
50310;BME280;36207;51.850;21.698;2022-12-17T06:48:07;100105.54;;;-2.75;78.56
50310;BME280;36207;51.850;21.698;2022-12-17T06:50:53;100109.42;;;-2.73;78.65
50310;BME280;36207;51.850;21.698;2022-12-17T06:53:40;100114.96;;;-2.72;78.45
50310;BME280;36207;51.850;21.698;2022-12-17T06:56:25;100114.40;;;-2.75;78.38
50310;BME280;36207;51.850;21.698;2022-12-17T06:59:10;100112.80;;;-2.77;78.33
50310;BME280;36207;51.850;21.698;2022-12-17T07:01:55;100102.27;;;-2.76;78.54
50310;BME280;36207;51.850;21.698;2022-12-17T07:04:40;100096.45;;;-2.72;78.53
50310;BME280;36207;51.850;21.698;2022-12-17T07:07:24;100099.81;;;-2.66;78.55
50310;BME280;36207;51.850;21.698;2022-12-17T07:10:10;100102.59;;;-2.66;78.56
50310;BME280;36207;51.850;21.698;2022-12-17T07:13:03;100106.61;;;-2.66;78.54
50310;BME280;36207;51.850;21.698;2022-12-17T07:15:48;100101.27;;;-2.68;78.39
50310;BME280;36207;51.850;21.698;2022-12-17T07:18:34;100100.45;;;-2.71;78.51
50310;BME280;36207;51.850;21.698;2022-12-17T07:21:19;100095.03;;;-2.74;78.44
50310;BME280;36207;51.850;21.698;2022-12-17T07:24:04;100091.95;;;-2.75;78.43
50310;BME280;36207;51.850;21.698;2022-12-17T07:26:49;100100.60;;;-2.71;78.53
50310;BME280;36207;51.850;21.698;2022-12-17T07:29:34;100103.45;;;-2.66;78.55
50310;BME280;36207;51.850;21.698;2022-12-17T07:32:20;100109.77;;;-2.64;78.62
50310;BME280;36207;51.850;21.698;2022-12-17T07:35:05;100101.55;;;-2.66;78.39
50310;BME280;36207;51.850;21.698;2022-12-17T07:37:58;100097.45;;;-2.71;78.31
50310;BME280;36207;51.850;21.698;2022-12-17T07:40:43;100103.98;;;-2.75;78.33
50310;BME280;36207;51.850;21.698;2022-12-17T07:43:28;100109.22;;;-2.72;78.51
50310;BME280;36207;51.850;21.698;2022-12-17T07:46:13;100116.06;;;-2.70;78.55
50310;BME280;36207;51.850;21.698;2022-12-17T07:48:58;100117.05;;;-2.66;78.63
50310;BME280;36207;51.850;21.698;2022-12-17T07:51:43;100118.36;;;-2.62;78.56
50310;BME280;36207;51.850;21.698;2022-12-17T07:54:28;100129.35;;;-2.59;78.47
50310;BME280;36207;51.850;21.698;2022-12-17T07:57:13;100140.77;;;-2.58;78.52
50310;BME280;36207;51.850;21.698;2022-12-17T07:59:59;100145.12;;;-2.58;78.39
50310;BME280;36207;51.850;21.698;2022-12-17T08:02:43;100152.08;;;-2.57;78.36
50310;BME280;36207;51.850;21.698;2022-12-17T08:05:29;100158.41;;;-2.53;78.40
50310;BME280;36207;51.850;21.698;2022-12-17T08:08:14;100166.23;;;-2.46;78.40
50310;BME280;36207;51.850;21.698;2022-12-17T08:10:59;100173.09;;;-2.41;78.27
50310;BME280;36207;51.850;21.698;2022-12-17T08:13:44;100166.36;;;-2.40;78.38
50310;BME280;36207;51.850;21.698;2022-12-17T08:16:36;100163.41;;;-2.34;78.41
50310;BME280;36207;51.850;21.698;2022-12-17T08:19:21;100168.05;;;-2.33;78.22
50310;BME280;36207;51.850;21.698;2022-12-17T08:22:06;100179.70;;;-2.33;78.01
50310;BME280;36207;51.850;21.698;2022-12-17T08:24:51;100191.98;;;-2.37;77.79
50310;BME280;36207;51.850;21.698;2022-12-17T08:27:36;100201.19;;;-2.45;77.84
50310;BME280;36207;51.850;21.698;2022-12-17T08:30:21;100210.59;;;-2.51;77.79
50310;BME280;36207;51.850;21.698;2022-12-17T08:33:06;100218.81;;;-2.54;77.87
50310;BME280;36207;51.850;21.698;2022-12-17T08:35:53;100223.80;;;-2.53;78.08
50310;BME280;36207;51.850;21.698;2022-12-17T08:38:38;100229.77;;;-2.51;77.97
50310;BME280;36207;51.850;21.698;2022-12-17T08:41:23;100232.81;;;-2.52;77.83
50310;BME280;36207;51.850;21.698;2022-12-17T08:44:08;100236.45;;;-2.52;78.10
50310;BME280;36207;51.850;21.698;2022-12-17T08:46:53;100232.28;;;-2.52;77.89
50310;BME280;36207;51.850;21.698;2022-12-17T08:49:38;100229.27;;;-2.51;77.97
50310;BME280;36207;51.850;21.698;2022-12-17T08:52:24;100223.95;;;-2.53;77.58
50310;BME280;36207;51.850;21.698;2022-12-17T08:55:09;100226.20;;;-2.55;77.73
50310;BME280;36207;51.850;21.698;2022-12-17T08:57:55;100223.33;;;-2.51;77.99
50310;BME280;36207;51.850;21.698;2022-12-17T09:00:40;100226.81;;;-2.48;77.69
50310;BME280;36207;51.850;21.698;2022-12-17T09:03:25;100234.36;;;-2.49;77.70
50310;BME280;36207;51.850;21.698;2022-12-17T09:06:11;100238.73;;;-2.46;77.87
50310;BME280;36207;51.850;21.698;2022-12-17T09:08:56;100234.85;;;-2.45;77.71
50310;BME280;36207;51.850;21.698;2022-12-17T09:11:41;100237.67;;;-2.46;77.74
50310;BME280;36207;51.850;21.698;2022-12-17T09:14:26;100234.60;;;-2.44;77.86
50310;BME280;36207;51.850;21.698;2022-12-17T09:17:11;100238.32;;;-2.39;77.83
50310;BME280;36207;51.850;21.698;2022-12-17T09:19:56;100236.85;;;-2.35;77.83
50310;BME280;36207;51.850;21.698;2022-12-17T09:22:41;100238.65;;;-2.33;77.77
50310;BME280;36207;51.850;21.698;2022-12-17T09:25:26;100234.89;;;-2.31;77.78
50310;BME280;36207;51.850;21.698;2022-12-17T09:28:11;100235.54;;;-2.31;77.62
50310;BME280;36207;51.850;21.698;2022-12-17T09:31:01;100246.09;;;-2.29;77.75
50310;BME280;36207;51.850;21.698;2022-12-17T09:33:53;100241.73;;;-2.29;77.65
50310;BME280;36207;51.850;21.698;2022-12-17T09:36:38;100251.81;;;-2.26;77.77
50310;BME280;36207;51.850;21.698;2022-12-17T09:39:44;100260.87;;;-2.22;77.75
50310;BME280;36207;51.850;21.698;2022-12-17T09:43:07;100258.13;;;-2.20;77.58
50310;BME280;36207;51.850;21.698;2022-12-17T09:49:16;100254.97;;;-2.17;77.75
50310;BME280;36207;51.850;21.698;2022-12-17T09:58:01;100265.35;;;-2.21;77.55
50310;BME280;36207;51.850;21.698;2022-12-17T10:00:48;100259.42;;;-2.19;77.72
50310;BME280;36207;51.850;21.698;2022-12-17T10:03:34;100251.45;;;-2.14;77.62
50310;BME280;36207;51.850;21.698;2022-12-17T10:06:24;100255.42;;;-2.10;77.59
50310;BME280;36207;51.850;21.698;2022-12-17T10:09:14;100258.41;;;-2.08;77.44
50310;BME280;36207;51.850;21.698;2022-12-17T10:12:15;100265.79;;;-2.05;77.35
50310;BME280;36207;51.850;21.698;2022-12-17T10:15:01;100271.59;;;-2.06;77.36
50310;BME280;36207;51.850;21.698;2022-12-17T10:17:46;100270.66;;;-2.05;77.29
50310;BME280;36207;51.850;21.698;2022-12-17T10:20:42;100270.01;;;-2.06;77.37
50310;BME280;36207;51.850;21.698;2022-12-17T10:23:32;100275.46;;;-2.04;77.29
50310;BME280;36207;51.850;21.698;2022-12-17T10:26:21;100276.34;;;-2.01;77.34
50310;BME280;36207;51.850;21.698;2022-12-17T10:29:19;100279.39;;;-1.99;77.28
50310;BME280;36207;51.850;21.698;2022-12-17T10:32:19;100282.15;;;-1.99;77.32
50310;BME280;36207;51.850;21.698;2022-12-17T10:35:17;100281.51;;;-1.97;77.37
50310;BME280;36207;51.850;21.698;2022-12-17T10:38:29;100287.80;;;-2.00;77.28
50310;BME280;36207;51.850;21.698;2022-12-17T10:41:26;100288.89;;;-2.01;77.11
50310;BME280;36207;51.850;21.698;2022-12-17T10:44:30;100293.98;;;-2.05;77.03
50310;BME280;36207;51.850;21.698;2022-12-17T10:47:18;100293.13;;;-2.05;77.20
50310;BME280;36207;51.850;21.698;2022-12-17T10:50:09;100292.48;;;-2.00;77.31
50310;BME280;36207;51.850;21.698;2022-12-17T10:52:54;100293.45;;;-1.95;77.23
50310;BME280;36207;51.850;21.698;2022-12-17T10:55:51;100294.05;;;-1.94;77.06
50310;BME280;36207;51.850;21.698;2022-12-17T10:58:41;100295.89;;;-1.93;77.20
50310;BME280;36207;51.850;21.698;2022-12-17T11:01:26;100297.08;;;-1.92;77.14
50310;BME280;36207;51.850;21.698;2022-12-17T11:07:25;100303.63;;;-1.85;77.31
50310;BME280;36207;51.850;21.698;2022-12-17T11:10:18;100307.34;;;-1.77;76.99
50310;BME280;36207;51.850;21.698;2022-12-17T11:13:07;100306.54;;;-1.78;76.60
50310;BME280;36207;51.850;21.698;2022-12-17T11:15:56;100305.14;;;-1.81;76.59
50310;BME280;36207;51.850;21.698;2022-12-17T11:21:45;100300.14;;;-1.94;76.50
50310;BME280;36207;51.850;21.698;2022-12-17T11:24:58;100303.13;;;-2.03;76.62
50310;BME280;36207;51.850;21.698;2022-12-17T11:27:49;100306.86;;;-2.07;76.66
50310;BME280;36207;51.850;21.698;2022-12-17T11:30:45;100310.05;;;-2.10;76.93
50310;BME280;36207;51.850;21.698;2022-12-17T11:33:38;100314.44;;;-2.11;76.68
50310;BME280;36207;51.850;21.698;2022-12-17T11:36:39;100315.71;;;-2.15;76.48
50310;BME280;36207;51.850;21.698;2022-12-17T11:39:34;100320.13;;;-2.18;76.55
50310;BME280;36207;51.850;21.698;2022-12-17T11:42:35;100326.23;;;-2.21;76.53
50310;BME280;36207;51.850;21.698;2022-12-17T11:45:45;100321.41;;;-2.32;76.27
50310;BME280;36207;51.850;21.698;2022-12-17T11:48:38;100317.64;;;-2.45;76.24
50310;BME280;36207;51.850;21.698;2022-12-17T11:54:35;100324.66;;;-2.70;76.24
50310;BME280;36207;51.850;21.698;2022-12-17T11:57:59;100323.30;;;-2.80;76.21
50310;BME280;36207;51.850;21.698;2022-12-17T12:03:54;100327.77;;;-2.88;76.51
50310;BME280;36207;51.850;21.698;2022-12-17T12:06:51;100330.84;;;-2.93;76.29
50310;BME280;36207;51.850;21.698;2022-12-17T12:09:58;100337.48;;;-2.94;76.68
50310;BME280;36207;51.850;21.698;2022-12-17T12:13:15;100341.45;;;-2.96;76.67
50310;BME280;36207;51.850;21.698;2022-12-17T12:19:41;100358.16;;;-3.05;76.50
50310;BME280;36207;51.850;21.698;2022-12-17T12:23:00;100366.86;;;-3.08;76.63
50310;BME280;36207;51.850;21.698;2022-12-17T12:26:29;100372.74;;;-3.14;76.51
50310;BME280;36207;51.850;21.698;2022-12-17T12:30:14;100376.87;;;-3.17;76.75
50310;BME280;36207;51.850;21.698;2022-12-17T12:36:14;100386.91;;;-3.22;76.58
50310;BME280;36207;51.850;21.698;2022-12-17T12:39:00;100391.73;;;-3.24;76.53
50310;BME280;36207;51.850;21.698;2022-12-17T12:41:58;100395.52;;;-3.26;76.72
50310;BME280;36207;51.850;21.698;2022-12-17T12:51:02;100394.92;;;-3.38;76.70
50310;BME280;36207;51.850;21.698;2022-12-17T12:53:58;100394.15;;;-3.37;76.75
50310;BME280;36207;51.850;21.698;2022-12-17T12:56:43;100394.54;;;-3.34;76.80
50310;BME280;36207;51.850;21.698;2022-12-17T12:59:29;100403.89;;;-3.33;76.77
50310;BME280;36207;51.850;21.698;2022-12-17T13:02:26;100410.67;;;-3.36;76.64
50310;BME280;36207;51.850;21.698;2022-12-17T13:05:37;100418.12;;;-3.42;76.64
50310;BME280;36207;51.850;21.698;2022-12-17T13:10:35;100423.51;;;-3.55;76.61
50310;BME280;36207;51.850;21.698;2022-12-17T13:19:04;100422.88;;;-3.66;76.91
50310;BME280;36207;51.850;21.698;2022-12-17T13:21:42;100419.71;;;-3.70;76.76
50310;BME280;36207;51.850;21.698;2022-12-17T13:24:10;100420.34;;;-3.72;76.87
50310;BME280;36207;51.850;21.698;2022-12-17T13:29:12;100424.70;;;-3.78;76.89
50310;BME280;36207;51.850;21.698;2022-12-17T13:37:36;100430.05;;;-3.82;76.98
50310;BME280;36207;51.850;21.698;2022-12-17T13:42:55;100434.66;;;-3.86;76.95
50310;BME280;36207;51.850;21.698;2022-12-17T13:45:25;100434.77;;;-3.88;77.09
50310;BME280;36207;51.850;21.698;2022-12-17T13:47:56;100442.52;;;-3.90;77.00
50310;BME280;36207;51.850;21.698;2022-12-17T13:50:27;100443.66;;;-3.92;76.94
50310;BME280;36207;51.850;21.698;2022-12-17T13:52:54;100445.39;;;-3.96;76.89
50310;BME280;36207;51.850;21.698;2022-12-17T13:55:23;100446.16;;;-3.97;76.89
50310;BME280;36207;51.850;21.698;2022-12-17T13:57:51;100442.96;;;-3.99;76.91
50310;BME280;36207;51.850;21.698;2022-12-17T14:00:28;100447.55;;;-4.01;76.97
50310;BME280;36207;51.850;21.698;2022-12-17T14:02:54;100454.66;;;-4.04;76.87
50310;BME280;36207;51.850;21.698;2022-12-17T14:07:52;100467.26;;;-4.09;77.03
50310;BME280;36207;51.850;21.698;2022-12-17T14:10:19;100472.27;;;-4.12;76.98
50310;BME280;36207;51.850;21.698;2022-12-17T14:12:47;100472.46;;;-4.13;77.12
50310;BME280;36207;51.850;21.698;2022-12-17T14:15:25;100466.47;;;-4.11;77.20
50310;BME280;36207;51.850;21.698;2022-12-17T14:17:54;100472.72;;;-4.07;77.16
50310;BME280;36207;51.850;21.698;2022-12-17T14:20:23;100480.58;;;-4.04;77.21
50310;BME280;36207;51.850;21.698;2022-12-17T14:23:07;100487.88;;;-4.04;77.12
50310;BME280;36207;51.850;21.698;2022-12-17T14:25:39;100494.66;;;-4.04;77.21
50310;BME280;36207;51.850;21.698;2022-12-17T14:28:21;100504.67;;;-4.06;77.05
50310;BME280;36207;51.850;21.698;2022-12-17T14:30:48;100511.17;;;-4.08;77.11
50310;BME280;36207;51.850;21.698;2022-12-17T14:33:25;100520.40;;;-4.04;77.30
50310;BME280;36207;51.850;21.698;2022-12-17T14:35:59;100517.70;;;-4.02;77.33
50310;BME280;36207;51.850;21.698;2022-12-17T14:38:28;100513.73;;;-4.02;77.25
50310;BME280;36207;51.850;21.698;2022-12-17T14:41:04;100509.34;;;-4.05;77.14
50310;BME280;36207;51.850;21.698;2022-12-17T14:43:57;100511.23;;;-4.09;77.15
50310;BME280;36207;51.850;21.698;2022-12-17T14:46:26;100518.31;;;-4.11;77.22
50310;BME280;36207;51.850;21.698;2022-12-17T14:48:57;100523.64;;;-4.14;77.27
50310;BME280;36207;51.850;21.698;2022-12-17T14:51:39;100532.59;;;-4.15;77.37
50310;BME280;36207;51.850;21.698;2022-12-17T14:54:19;100538.48;;;-4.15;77.38
50310;BME280;36207;51.850;21.698;2022-12-17T14:56:48;100537.63;;;-4.15;77.42
50310;BME280;36207;51.850;21.698;2022-12-17T14:59:34;100540.60;;;-4.12;77.53
50310;BME280;36207;51.850;21.698;2022-12-17T15:02:04;100538.65;;;-4.15;77.29
50310;BME280;36207;51.850;21.698;2022-12-17T15:04:39;100536.06;;;-4.22;77.45
50310;BME280;36207;51.850;21.698;2022-12-17T15:07:06;100542.96;;;-4.29;77.56
50310;BME280;36207;51.850;21.698;2022-12-17T15:09:36;100542.04;;;-4.35;77.60
50310;BME280;36207;51.850;21.698;2022-12-17T15:12:03;100536.16;;;-4.39;77.63
50310;BME280;36207;51.850;21.698;2022-12-17T15:14:30;100540.29;;;-4.38;77.61
50310;BME280;36207;51.850;21.698;2022-12-17T15:16:59;100545.45;;;-4.37;77.64
50310;BME280;36207;51.850;21.698;2022-12-17T15:19:26;100543.73;;;-4.38;77.64
50310;BME280;36207;51.850;21.698;2022-12-17T15:21:53;100542.46;;;-4.37;77.76